Fremont, OH (43420)

2:05 AM EST on January 23, 2017 (GMT -0500)
North Of Fremont PD West State | | Change Station
Active Advisory: Small Craft Advisory

Elev 627 ft 41.35 °N, 83.13 °W | Updated 14 seconds ago

Fog
Fog
37.4 °F
Feels Like 30 °F
N
10.0
Wind Variable Wind from NE

Today
High -- | Low -- °F
--% Chance of Precip.
Yesterday
High -- | Low -- °F
Precip. -- in
Pressure 29.57 in
Visibility 0.8 miles
Clouds Overcast 200 ft
Windchill 30 °F
Dew Point 37 °F
Humidity 98%
Rainfall 0.00 in
Snow Depth Not available.
7:51 AM 5:37 PM
Waning Crescent, 20% visible
METAR KPCW 230654Z AUTO 06011KT 3/4SM BR OVC002 02/02 A2957 RMK AO2 T00220022 $
Pressure 29.57 in
Visibility 0.8 miles
Clouds Overcast 200 ft
Windchill 30 °F
Dew Point 37 °F
Humidity 98%
Rainfall 0.00 in
Snow Depth Not available.
7:51 AM 5:37 PM
Waning Crescent, 20% visible
METAR KPCW 230654Z AUTO 06011KT 3/4SM BR OVC002 02/02 A2957 RMK AO2 T00220022 $

Get Your Daily Forecast Email!

Thanks for signing up!

Be on the lookout for a verification email in your inbox.

You'll start receiving the daily forecast at 8 AM.

×

10-Day Weather Forecast

Almanac

Astronomy

Jan. 23, 2017 Rise Set
Actual Time
Civil Twilight
Nautical Twilight
Astronomical Twilight
Moon
Length of Visible Light
Length of Day
Tomorrow will be .
, % of the Moon is Illuminated

Today's Extremes

State Highs State Lows

Community

WunderPhotos

Upload Photos

1,962,540 photos uploaded!

WunderBlog® & News

Nearby

Air Quality

  Air Quality AQ Index Pollutant
Not available.

Snow Depth

Station Depth Elevation

Earthquake Activity

City Distance Mag. Time & Date
Minimum magnitude displayed is 2.5.

Coastal Water Temperatures

Place Temperature

Stations

Nearby Weather Stations

Station Location Temp. Windchill Dew Point Humidity Wind Precip. Elev Updated Type
                   

Watches & Warnings

Small Craft Advisory
Issued: 9:40 PM EST Jan. 22, 2017 – National Weather Service

... Small Craft Advisory remains in effect from 4 am Monday to
4 am EST Tuesday...

* winds... northeast 10 to 20 knots with gusts up to 25 knots.

* Waves... 3 to 5 feet.

Precautionary/preparedness actions...

A Small Craft Advisory is issued when waves of 4 feet or more are
expected or wind speeds reach 21 to 33 knots which may produce
hazardous conditions to small craft. Inexperienced mariners...
especially those operating smaller vessels... should stay in port
during these conditions.